Accueil
METAR-TAF:

METAR-TAF

Aéroports :

Aéroport international Murtala-Muhammed

Lagos, Nigeria

latitude: 06-35N, longitude: 003-20E, altitude: 40 m

Observation

Le bulletin a été fait il y a 23 heures et 14 minutes, à 22:00 UTC
Vent 3 kt de sud/sud-ouest
Température 25°C
Humidité 89%
Pression 1017 hPa
Visibilité 10 km ou plus
Quelques nuages à une hauteur de 900 ft

METAR: DNMM 162200Z 21003KT 9999 FEW009 25/23 Q1017 NOSIG

Heure: 22:14 (21:14 UTC)

Prévision

Le bulletin a été fait il y a 23 heures et 34 minutes, à 21:40 UTC
Prévision valable du 17 à 00 UTC au 18 à 06 UTC
Vent 2 kt de direction variable
Visibilité: 8000 m
Quelques nuages à une hauteur de 800 ft
Evoluant progressivement
du 17 à 08 UTC au 17 à 10 UTC
Vent 10 kt de sud/sud-ouest
Nuages fragmentés à une hauteur de 1100 ft
Quelques nuages à une hauteur de 2000 ft, Cumulonimbus.

TAF: DNMM 162140Z 1700/1806 VRB02KT 8000 FEW008 BECMG 1708/1710 20010KT BKN011 FEW020CB

Observations et prévisions météorologiques de plus de 4000 aéroports (messages METAR et TAF).

Les stations disponibles sont représentées par des disques jaunes et rouges sur la carte.

Passer la souris dessus pour voir le nom de la station.

Cliquer dessus pour voir les observations et prévisions météorologiques.

Pour changer de carte: cliquez sur les boutons verts avec une croix noire pour zoomer, sur le bouton vert avec un tiret pour effectuer un zoom arrière, ou sur les flèches vertes pour les cartes adjacentes.


METAR-TAF: